createdAt,value
2024-01-11T00:02:56.490Z,21.12
2024-01-11T00:05:59.255Z,23.67
2024-01-11T00:09:01.895Z,14.60
2024-01-11T00:12:04.666Z,12.23
2024-01-11T00:15:08.089Z,19.35
2024-01-11T00:18:12.507Z,15.77
2024-01-11T00:21:16.882Z,13.47
2024-01-11T00:24:20.140Z,17.42
2024-01-11T00:27:22.395Z,11.95
2024-01-11T00:30:25.466Z,18.97
2024-01-11T00:33:34.660Z,26.95
2024-01-11T00:36:39.924Z,16.12
2024-01-11T00:39:44.722Z,14.87
2024-01-11T00:42:48.060Z,11.57
2024-01-11T00:45:52.144Z,12.55
2024-01-11T00:48:59.579Z,19.12
2024-01-11T00:52:01.851Z,16.53
2024-01-11T00:55:04.634Z,16.17
2024-01-11T00:58:07.187Z,21.45
2024-01-11T01:01:12.752Z,17.70
2024-01-11T01:04:15.537Z,18.70
2024-01-11T01:07:18.231Z,12.75
2024-01-11T01:10:20.876Z,13.52
2024-01-11T01:13:23.255Z,20.52
2024-01-11T01:16:25.917Z,18.08
2024-01-11T01:19:28.256Z,20.35
2024-01-11T01:22:30.904Z,10.97
2024-01-11T01:25:36.409Z,16.37
2024-01-11T01:28:39.243Z,21.70
2024-01-11T01:31:41.787Z,19.00
2024-01-11T01:34:47.166Z,14.10
2024-01-11T01:37:51.214Z,20.45
2024-01-11T01:41:04.536Z,14.73
2024-01-11T01:44:09.992Z,15.02
2024-01-11T01:47:13.566Z,21.60
2024-01-11T01:50:16.437Z,17.05
2024-01-11T01:53:24.773Z,17.17
2024-01-11T01:56:28.667Z,21.95
2024-01-11T01:59:32.497Z,18.60
2024-01-11T02:02:36.360Z,16.53
2024-01-11T02:05:40.001Z,20.62
2024-01-11T02:08:45.032Z,14.55
2024-01-11T02:11:48.411Z,13.93
2024-01-11T02:14:51.436Z,24.33
2024-01-11T02:17:54.292Z,13.23
2024-01-11T02:20:57.888Z,12.35
2024-01-11T02:24:07.696Z,17.07
2024-01-11T02:27:12.117Z,16.45
2024-01-11T02:30:15.331Z,11.82
2024-01-11T02:33:20.179Z,13.53
2024-01-11T02:36:23.171Z,11.75
2024-01-11T02:39:27.438Z,14.98
2024-01-11T02:42:29.996Z,8.85
2024-01-11T02:45:32.629Z,13.45
2024-01-11T02:48:34.946Z,17.92
2024-01-11T02:51:37.894Z,15.40
2024-01-11T02:54:40.441Z,16.13
2024-01-11T02:57:43.043Z,18.45
2024-01-11T03:00:45.527Z,15.70
2024-01-11T03:03:50.821Z,17.40
2024-01-11T03:06:54.950Z,12.68
2024-01-11T03:09:57.811Z,20.45
2024-01-11T03:13:01.159Z,16.70
2024-01-11T03:16:04.617Z,12.27
2024-01-11T03:19:07.953Z,11.18
2024-01-11T03:22:10.674Z,23.80
2024-01-11T03:25:13.169Z,13.90
2024-01-11T03:28:16.270Z,13.77
2024-01-11T03:31:18.845Z,14.43
2024-01-11T03:34:21.625Z,15.83
2024-01-11T03:37:24.138Z,13.70
2024-01-11T03:40:26.587Z,21.87
2024-01-11T03:43:29.108Z,6.57
2024-01-11T03:46:31.370Z,13.30
2024-01-11T03:49:33.946Z,14.25
2024-01-11T03:52:36.541Z,15.40
2024-01-11T03:55:38.785Z,10.10
2024-01-11T03:58:43.066Z,12.37
2024-01-11T04:01:45.795Z,14.85
2024-01-11T04:04:48.315Z,13.57
2024-01-11T04:07:50.807Z,16.17
2024-01-11T04:10:53.011Z,17.30
2024-01-11T04:13:55.587Z,14.32
2024-01-11T04:16:58.097Z,11.35
2024-01-11T04:20:00.769Z,11.18
2024-01-11T04:23:03.240Z,11.77
2024-01-11T04:26:05.868Z,20.03
2024-01-11T04:29:08.508Z,13.38
2024-01-11T04:32:10.843Z,13.70
2024-01-11T04:35:13.524Z,15.77
2024-01-11T04:38:15.773Z,14.60
2024-01-11T04:41:18.367Z,9.20
2024-01-11T04:44:21.076Z,13.20
2024-01-11T04:47:23.760Z,20.50
2024-01-11T04:50:26.492Z,10.20
2024-01-11T04:53:29.069Z,13.32
2024-01-11T04:56:31.516Z,18.00
2024-01-11T04:59:33.926Z,18.37
2024-01-11T05:02:36.698Z,16.73
2024-01-11T05:05:39.091Z,11.00
2024-01-11T05:08:41.811Z,22.55
2024-01-11T05:11:44.489Z,20.73
2024-01-11T05:14:47.063Z,20.50
2024-01-11T05:17:49.568Z,15.75
2024-01-11T05:20:52.329Z,14.63
2024-01-11T05:23:54.632Z,13.90
2024-01-11T05:26:56.907Z,15.27
2024-01-11T05:29:59.136Z,6.18
2024-01-11T05:33:01.554Z,15.15
2024-01-11T05:36:04.501Z,17.83
2024-01-11T05:39:07.366Z,12.80
2024-01-11T05:42:09.905Z,16.60
2024-01-11T05:45:12.102Z,11.68
2024-01-11T05:48:20.605Z,10.55
2024-01-11T05:51:23.198Z,14.25
2024-01-11T05:54:27.917Z,11.00
2024-01-11T05:57:30.427Z,21.47
2024-01-11T06:00:33.132Z,12.40
2024-01-11T06:03:36.092Z,17.20
2024-01-11T06:06:38.569Z,18.00
2024-01-11T06:09:41.160Z,12.63
2024-01-11T06:12:43.753Z,22.75
2024-01-11T06:15:46.259Z,14.57
2024-01-11T06:18:48.710Z,19.42
2024-01-11T06:21:52.366Z,12.65
2024-01-11T06:24:54.771Z,14.05
2024-01-11T06:27:56.968Z,15.27
2024-01-11T06:30:59.541Z,17.12
2024-01-11T06:34:01.899Z,15.77
2024-01-11T06:37:04.555Z,9.93
2024-01-11T06:40:09.491Z,23.10
2024-01-11T06:43:12.797Z,11.63
2024-01-11T06:46:20.513Z,11.63
2024-01-11T06:49:22.802Z,16.75
2024-01-11T06:52:25.301Z,18.33
2024-01-11T06:55:27.647Z,24.45
2024-01-11T06:58:30.527Z,22.57
2024-01-11T07:01:33.073Z,16.05
2024-01-11T07:04:36.146Z,16.17
2024-01-11T07:07:38.711Z,15.97
2024-01-11T07:10:41.260Z,13.60
2024-01-11T07:13:44.541Z,9.95
2024-01-11T07:16:46.764Z,14.13
2024-01-11T07:19:49.385Z,23.02
2024-01-11T07:22:51.880Z,17.95
2024-01-11T07:25:54.575Z,18.77
2024-01-11T07:28:57.235Z,15.83
2024-01-11T07:31:59.756Z,12.15
2024-01-11T07:35:02.074Z,21.80
2024-01-11T07:38:06.265Z,18.70
2024-01-11T07:41:08.507Z,9.52
2024-01-11T07:44:11.125Z,5.65
2024-01-11T07:47:13.765Z,11.65
2024-01-11T07:50:16.551Z,19.37
2024-01-11T07:53:19.168Z,10.23
2024-01-11T07:56:21.904Z,37.35
2024-01-11T07:59:24.267Z,4.80
2024-01-11T08:02:26.952Z,12.90
2024-01-11T08:05:29.526Z,24.90
2024-01-11T08:08:32.088Z,33.37
2024-01-11T08:11:37.151Z,14.57
2024-01-11T08:14:43.270Z,11.88
2024-01-11T08:17:48.702Z,14.45
2024-01-11T08:20:51.967Z,13.68
2024-01-11T08:23:54.577Z,16.17
2024-01-11T08:26:57.105Z,20.25
2024-01-11T08:30:01.811Z,11.83
2024-01-11T08:33:05.374Z,13.55
2024-01-11T08:36:08.511Z,19.50
2024-01-11T08:39:12.817Z,15.37
2024-01-11T08:42:16.668Z,22.95
2024-01-11T08:45:23.306Z,10.65
2024-01-11T08:48:26.192Z,17.08
2024-01-11T08:51:28.499Z,16.42
2024-01-11T08:54:31.019Z,21.17
2024-01-11T08:57:33.591Z,33.30
2024-01-11T09:00:35.810Z,35.63
2024-01-11T09:03:38.800Z,24.52
2024-01-11T09:06:41.577Z,22.05
2024-01-11T09:09:50.932Z,30.85
2024-01-11T09:12:58.847Z,27.00
2024-01-11T09:16:01.437Z,35.40
2024-01-11T09:19:04.130Z,30.40
2024-01-11T09:22:07.017Z,45.47
2024-01-11T09:25:09.926Z,30.60
2024-01-11T09:28:12.210Z,31.67
2024-01-11T09:31:14.524Z,33.13
2024-01-11T09:34:17.107Z,20.08
2024-01-11T09:37:19.708Z,34.67
2024-01-11T09:40:22.386Z,20.17
2024-01-11T09:43:25.141Z,36.43
2024-01-11T09:46:29.407Z,20.00
2024-01-11T09:49:32.246Z,29.08
2024-01-11T09:52:36.662Z,23.00
2024-01-11T09:55:39.890Z,23.90
2024-01-11T09:58:53.568Z,21.52
2024-01-11T10:01:56.098Z,24.05
2024-01-11T10:04:58.279Z,23.73
2024-01-11T10:08:00.515Z,15.68
2024-01-11T10:11:04.390Z,15.73
2024-01-11T10:14:06.784Z,36.85
2024-01-11T10:17:10.361Z,31.73
2024-01-11T10:20:17.104Z,31.45
2024-01-11T10:23:19.944Z,27.93
2024-01-11T10:26:23.010Z,21.42
2024-01-11T10:29:32.742Z,18.35
2024-01-11T10:32:38.432Z,20.73
2024-01-11T10:35:40.709Z,25.52
2024-01-11T10:38:46.165Z,26.77
2024-01-11T10:41:53.700Z,26.05
2024-01-11T10:44:57.252Z,20.12
2024-01-11T10:48:06.151Z,21.80
2024-01-11T10:51:13.935Z,25.90
2024-01-11T10:54:17.368Z,25.70
2024-01-11T10:57:20.028Z,28.02
2024-01-11T11:00:24.073Z,28.20
2024-01-11T11:03:27.096Z,24.58
2024-01-11T11:06:31.232Z,19.10
2024-01-11T11:09:36.318Z,12.50
2024-01-11T11:12:40.366Z,21.42
2024-01-11T11:15:48.349Z,25.77
2024-01-11T11:18:55.413Z,23.40
2024-01-11T11:21:57.666Z,22.35
2024-01-11T11:25:27.234Z,28.27
2024-01-11T11:28:29.978Z,27.10
2024-01-11T11:31:58.943Z,27.92
2024-01-11T11:35:01.561Z,29.60
2024-01-11T11:38:04.709Z,23.42
2024-01-11T11:41:08.504Z,27.67
2024-01-11T11:44:14.149Z,24.75
2024-01-11T11:47:24.679Z,18.87
2024-01-11T11:50:28.132Z,26.00
2024-01-11T11:53:37.762Z,13.52
2024-01-11T11:56:40.475Z,25.33
2024-01-11T11:59:44.028Z,29.65
2024-01-11T12:02:48.834Z,24.67
2024-01-11T12:05:51.574Z,26.35
2024-01-11T12:08:57.671Z,22.67
2024-01-11T12:12:11.075Z,24.37
2024-01-11T12:15:17.616Z,18.77
2024-01-11T12:18:20.214Z,17.95
2024-01-11T12:21:23.025Z,19.17
2024-01-11T12:24:25.628Z,27.15
2024-01-11T12:27:27.893Z,21.87
2024-01-11T12:30:32.988Z,15.95
2024-01-11T12:33:37.868Z,11.95
2024-01-11T12:36:40.636Z,14.07
2024-01-11T12:39:43.625Z,14.45
2024-01-11T12:42:46.364Z,22.53
2024-01-11T12:45:48.970Z,13.73
2024-01-11T12:48:52.191Z,18.33
2024-01-11T12:51:55.237Z,12.07
2024-01-11T12:55:01.262Z,16.15
2024-01-11T12:58:13.246Z,9.33
2024-01-11T13:01:15.775Z,13.15
2024-01-11T13:04:18.428Z,13.07
2024-01-11T13:07:24.441Z,19.15
2024-01-11T13:10:29.322Z,11.98
2024-01-11T13:13:31.801Z,9.60
2024-01-11T13:16:34.339Z,15.68
2024-01-11T13:19:37.056Z,20.77
2024-01-11T13:22:39.413Z,15.93
2024-01-11T13:25:46.434Z,15.65
2024-01-11T13:28:49.479Z,14.63
2024-01-11T13:31:52.116Z,15.10
2024-01-11T13:34:54.815Z,23.27
2024-01-11T13:37:57.403Z,15.70
2024-01-11T13:40:59.680Z,17.58
2024-01-11T13:44:02.185Z,14.47
2024-01-11T13:47:04.804Z,18.45
2024-01-11T13:50:07.464Z,11.23
2024-01-11T13:53:10.053Z,19.37
2024-01-11T13:56:12.822Z,20.15
2024-01-11T13:59:16.073Z,18.67
2024-01-11T14:02:18.472Z,18.80
2024-01-11T14:05:20.953Z,16.80
2024-01-11T14:08:23.718Z,18.35
2024-01-11T14:11:26.149Z,31.52
2024-01-11T14:14:28.749Z,18.67
2024-01-11T14:17:31.440Z,19.52
2024-01-11T14:20:35.713Z,19.08
2024-01-11T14:23:39.107Z,17.77
2024-01-11T14:26:42.149Z,18.42
2024-01-11T14:29:44.896Z,23.53
2024-01-11T14:32:47.618Z,22.55
2024-01-11T14:35:50.117Z,25.65
2024-01-11T14:38:52.957Z,21.67
2024-01-11T14:41:55.300Z,23.23
2024-01-11T14:44:57.773Z,21.97
2024-01-11T14:48:00.610Z,12.52
2024-01-11T14:51:04.161Z,18.92
2024-01-11T14:54:06.512Z,20.12
2024-01-11T14:57:09.578Z,24.92
2024-01-11T15:00:12.613Z,22.87
2024-01-11T15:03:17.023Z,22.52
2024-01-11T15:06:21.042Z,41.78
2024-01-11T15:09:24.482Z,11.80
2024-01-11T15:12:26.720Z,26.27
2024-01-11T15:15:29.171Z,24.97
2024-01-11T15:18:32.029Z,22.62
2024-01-11T15:21:37.435Z,24.87
2024-01-11T15:24:42.014Z,23.80
2024-01-11T15:27:44.560Z,29.35
2024-01-11T15:30:47.402Z,24.07
2024-01-11T15:33:50.253Z,26.05
2024-01-11T15:36:55.421Z,24.90
2024-01-11T15:39:58.057Z,29.15
2024-01-11T15:43:00.717Z,26.98
2024-01-11T15:46:04.201Z,25.27
2024-01-11T15:49:07.007Z,28.83
2024-01-11T15:52:10.070Z,25.08
2024-01-11T15:55:15.404Z,29.50
2024-01-11T15:58:18.096Z,28.92
2024-01-11T16:01:20.996Z,31.27
2024-01-11T16:04:24.263Z,43.45
2024-01-11T16:07:27.028Z,33.40
2024-01-11T16:10:29.782Z,39.75
2024-01-11T16:13:32.160Z,33.45
2024-01-11T16:16:35.090Z,30.77
2024-01-11T16:19:37.878Z,34.58
2024-01-11T16:22:40.725Z,31.85
2024-01-11T16:25:43.216Z,37.17
2024-01-11T16:28:45.498Z,41.85
2024-01-11T16:31:47.838Z,36.37
2024-01-11T16:34:51.296Z,44.50
2024-01-11T16:37:53.822Z,25.05
2024-01-11T16:40:56.118Z,11.30
2024-01-11T16:43:58.761Z,28.40
2024-01-11T16:47:01.150Z,36.20
2024-01-11T16:50:07.735Z,42.30
2024-01-11T16:53:10.204Z,36.45
2024-01-11T16:56:12.610Z,27.50
2024-01-11T16:59:16.671Z,26.73
2024-01-11T17:02:22.293Z,23.33
2024-01-11T17:05:25.842Z,25.62
2024-01-11T17:08:29.350Z,26.92
2024-01-11T17:11:32.940Z,21.75
2024-01-11T17:17:39.459Z,28.02
2024-01-11T17:20:43.499Z,27.35
2024-01-11T17:23:46.599Z,32.13
2024-01-11T17:26:49.867Z,30.50
2024-01-11T17:29:53.217Z,25.35
2024-01-11T17:32:56.829Z,28.17
2024-01-11T17:36:00.384Z,31.12
2024-01-11T17:39:07.763Z,28.10
2024-01-11T17:42:11.867Z,30.83
2024-01-11T17:45:15.314Z,34.10
2024-01-11T17:48:19.028Z,12.43
2024-01-11T17:51:22.102Z,39.37
2024-01-11T17:54:25.794Z,26.87
2024-01-11T17:57:29.234Z,34.67
2024-01-11T18:00:33.344Z,35.60
2024-01-11T18:03:36.398Z,35.63
2024-01-11T18:06:39.807Z,23.20
2024-01-11T18:09:43.104Z,25.52
2024-01-11T18:12:45.893Z,19.80
2024-01-11T18:15:50.505Z,28.85
2024-01-11T18:18:54.659Z,30.08
2024-01-11T18:21:58.499Z,27.63
2024-01-11T18:25:02.751Z,40.55
2024-01-11T18:28:08.209Z,24.20
2024-01-11T18:31:16.170Z,31.87
2024-01-11T18:34:21.687Z,24.90
2024-01-11T18:37:25.513Z,28.77
2024-01-11T18:40:28.226Z,35.97
2024-01-11T18:43:30.611Z,29.00
2024-01-11T18:46:34.473Z,23.70
2024-01-11T18:49:36.947Z,34.88
2024-01-11T18:52:40.234Z,22.23
2024-01-11T18:55:43.142Z,28.38
2024-01-11T18:58:46.221Z,33.07
2024-01-11T19:01:49.176Z,15.80
2024-01-11T19:04:52.757Z,20.37
2024-01-11T19:07:55.797Z,28.62
2024-01-11T19:11:00.821Z,19.63
2024-01-11T19:14:04.379Z,27.33
2024-01-11T19:17:07.713Z,22.20
2024-01-11T19:20:10.904Z,34.95
2024-01-11T19:23:15.438Z,21.23
2024-01-11T19:26:20.137Z,10.95
2024-01-11T19:29:26.384Z,23.40
2024-01-11T19:32:30.596Z,29.90
2024-01-11T19:35:35.554Z,28.53
2024-01-11T19:38:40.888Z,36.60
2024-01-11T19:41:47.050Z,26.10
2024-01-11T19:44:52.662Z,30.98
2024-01-11T19:47:58.429Z,12.60
2024-01-11T19:51:04.187Z,20.75
2024-01-11T19:54:09.737Z,31.98
2024-01-11T19:57:12.727Z,38.55
2024-01-11T20:00:16.780Z,28.20
2024-01-11T20:03:21.528Z,23.10
2024-01-11T20:06:25.892Z,28.98
2024-01-11T20:09:28.371Z,33.85
2024-01-11T20:12:31.729Z,28.45
2024-01-11T20:15:34.466Z,28.30
2024-01-11T20:18:37.614Z,25.70
2024-01-11T20:21:40.450Z,27.05
2024-01-11T20:24:43.372Z,32.67
2024-01-11T20:27:56.022Z,16.17
2024-01-11T20:30:58.942Z,18.35
2024-01-11T20:34:03.479Z,41.75
2024-01-11T20:37:09.614Z,23.87
2024-01-11T20:40:15.512Z,26.50
2024-01-11T20:43:24.434Z,26.10
2024-01-11T20:46:32.067Z,22.33
2024-01-11T20:49:35.034Z,36.87
2024-01-11T20:52:37.563Z,50.17
2024-01-11T20:55:39.927Z,29.20
2024-01-11T20:58:45.612Z,33.85
2024-01-11T21:01:49.502Z,30.20
2024-01-11T21:04:52.444Z,29.15
2024-01-11T21:07:54.852Z,23.27
2024-01-11T21:10:58.198Z,32.55
2024-01-11T21:14:00.580Z,30.47
2024-01-11T21:17:03.583Z,31.00
2024-01-11T21:20:06.644Z,37.58
2024-01-11T21:23:09.123Z,42.60
2024-01-11T21:26:11.680Z,33.67
2024-01-11T21:29:14.571Z,21.55
2024-01-11T21:32:16.942Z,25.17
2024-01-11T21:35:19.838Z,45.47
2024-01-11T21:38:22.499Z,36.33
2024-01-11T21:41:27.392Z,41.00
2024-01-11T21:44:31.149Z,49.33
2024-01-11T21:47:34.530Z,16.27
2024-01-11T21:50:37.577Z,20.40
2024-01-11T21:53:40.209Z,41.22
2024-01-11T21:56:43.227Z,42.15
2024-01-11T21:59:45.994Z,38.58
2024-01-11T22:02:48.544Z,20.97
2024-01-11T22:05:52.837Z,30.83
2024-01-11T22:08:59.474Z,44.33
2024-01-11T22:12:02.809Z,37.85
2024-01-11T22:15:08.665Z,39.78
2024-01-11T22:18:11.726Z,32.38
2024-01-11T22:21:15.071Z,13.07
2024-01-11T22:24:18.003Z,44.65
2024-01-11T22:27:22.712Z,27.90
2024-01-11T22:30:25.799Z,42.70
2024-01-11T22:33:28.714Z,35.42
2024-01-11T22:36:31.331Z,18.37
2024-01-11T22:39:34.197Z,44.33
2024-01-11T22:42:37.078Z,43.15
2024-01-11T22:45:39.734Z,40.15
2024-01-11T22:48:43.128Z,19.98
2024-01-11T22:51:45.972Z,49.87
2024-01-11T22:54:48.504Z,43.00
2024-01-11T22:57:50.924Z,45.50
2024-01-11T23:00:54.299Z,28.77
2024-01-11T23:03:58.057Z,29.55
2024-01-11T23:07:01.213Z,32.13
2024-01-11T23:10:03.853Z,42.33
2024-01-11T23:13:06.191Z,47.90
2024-01-11T23:16:09.191Z,29.08
2024-01-11T23:19:12.075Z,38.22
2024-01-11T23:22:14.838Z,40.85
2024-01-11T23:25:17.431Z,35.75
2024-01-11T23:28:21.210Z,38.75
2024-01-11T23:31:26.848Z,46.90
2024-01-11T23:34:30.127Z,46.23
2024-01-11T23:37:32.479Z,38.90
2024-01-11T23:40:34.649Z,40.88
2024-01-11T23:43:37.822Z,40.78
2024-01-11T23:46:40.571Z,46.57
2024-01-11T23:49:45.413Z,41.17
2024-01-11T23:52:48.497Z,47.03
2024-01-11T23:55:51.681Z,40.28
2024-01-11T23:58:56.308Z,46.58
